Time;durP1;ratioP1;P1;durP2;ratioP2;P2;SDS_P1;SDS_P2;PMS_P1;PMS_P2;Temp;Humidity;BMP_temperature;BMP_pressure;BME280_temperature;BME280_humidity;BME280_pressure;Samples;Min_cycle;Max_cycle;Signal;HPM_P1;HPM_P2
2022/08/18 00:01:04;;;;;;;;;;;;;;;;;;4889780;29;19932;-75
2022/08/18 00:03:31;;;;;;;;;;;;;;;;;;4889221;29;19931;-75
2022/08/18 00:06:19;;;;;;;;;;;;;;;;;;4891420;29;19932;-76
2022/08/18 00:08:46;;;;;;;;;;;;;;;;;;4888647;29;20011;-75
2022/08/18 00:11:13;;;;;;;;;;;;;;;;;;4904514;29;19938;-77
2022/08/18 00:13:40;;;;;;;;;;;;;;;;;;4889324;29;19939;-75
2022/08/18 00:16:08;;;;;;;;;;;;;;;;;;4873308;29;19932;-75
2022/08/18 00:18:35;;;;;;;;;;;;;;;;;;4889338;29;19938;-75
2022/08/18 00:21:03;;;;;;;;;;;;;;;;;;4890742;29;19931;-76
2022/08/18 00:23:31;;;;;;;;;;;;;;;;;;4887598;29;19941;-76
2022/08/18 00:25:58;;;;;;;;;;;;;;;;;;4889800;29;20696;-76
2022/08/18 00:28:26;;;;;;;;;;;;;;;;;;4889003;29;19971;-75
2022/08/18 00:30:53;;;;;;;;;;;;;;;;;;4889666;29;19928;-75
2022/08/18 00:33:20;;;;;;;;;;;;;;;;;;4891195;29;19936;-75
2022/08/18 00:35:48;;;;;;;;;;;;;;;;;;4890480;29;19931;-73
2022/08/18 00:38:16;;;;;;;;;;;;;;;;;;4886959;29;19931;-75
2022/08/18 00:40:53;;;;;;;;;;;;;;;;;;4891695;29;19939;-74
2022/08/18 00:43:20;;;;;;;;;;;;;;;;;;4889048;29;19942;-75
2022/08/18 00:45:48;;;;;;;;;;;;;;;;;;4890290;29;20544;-75
2022/08/18 00:48:15;;;;;;;;;;;;;;;;;;4881627;29;19937;-74
2022/08/18 00:50:42;;;;;;;;;;;;;;;;;;4891082;29;20310;-75
2022/08/18 00:53:09;;;;;;;;;;;;;;;;;;4891983;29;19960;-75
2022/08/18 00:55:36;;;;;;;;;;;;;;;;;;4892345;29;20509;-74
2022/08/18 00:58:05;;;;;;;;;;;;;;;;;;4889533;29;19927;-75
2022/08/18 01:00:32;;;;;;;;;;;;;;;;;;4890066;29;20537;-75
2022/08/18 01:03:00;;;;;;;;;;;;;;;;;;4905461;23;19931;-67
2022/08/18 01:05:29;;;;;;;;;;;;;;;;;;4881529;29;19936;-67
2022/08/18 01:07:56;;;;;;;;;;;;;;;;;;4888047;29;19937;-67
2022/08/18 01:10:23;;;;;;;;;;;;;;;;;;4891739;29;19938;-67
2022/08/18 01:12:50;;;;;;;;;;;;;;;;;;4889836;29;19931;-69
2022/08/18 01:15:18;;;;;;;;;;;;;;;;;;4890043;29;19942;-68
2022/08/18 01:23:29;;;;;;;;;;;;;;;;;;4887684;29;19935;-67
2022/08/18 01:25:59;;;;;;;;;;;;;;;;;;4891702;29;19943;-69
2022/08/18 01:28:27;;;;;;;;;;;;;;;;;;4889071;29;19935;-68
2022/08/18 01:30:56;;;;;;;;;;;;;;;;;;4887368;29;19928;-67
2022/08/18 01:33:25;;;;;;;;;;;;;;;;;;4889850;29;19934;-67
2022/08/18 01:35:57;;;;;;;;;;;;;;;;;;4892071;29;20113;-67
2022/08/18 01:38:25;;;;;;;;;;;;;;;;;;4887608;29;20395;-68
2022/08/18 01:40:53;;;;;;;;;;;;;;;;;;4891174;29;19938;-68
2022/08/18 01:43:40;;;;;;;;;;;;;;;;;;4890035;29;19928;-67
2022/08/18 01:46:07;;;;;;;;;;;;;;;;;;4887892;29;19939;-67
2022/08/18 01:48:35;;;;;;;;;;;;;;;;;;4890484;29;19935;-67
2022/08/18 01:51:02;;;;;;;;;;;;;;;;;;4890334;29;20380;-67
2022/08/18 01:53:29;;;;;;;;;;;;;;;;;;4889210;29;20026;-67
2022/08/18 01:55:56;;;;;;;;;;;;;;;;;;4889838;29;19927;-67
2022/08/18 01:58:26;;;;;;;;;;;;;;;;;;4887518;29;19931;-67
2022/08/18 02:01:00;;;;;;;;;;;;;;;;;;4889161;29;19935;-68
2022/08/18 02:03:28;;;;;;;;;;;;;;;;;;4888258;29;19932;-67
2022/08/18 02:05:55;;;;;;;;;;;;;;;;;;4890582;29;19931;-67
2022/08/18 02:08:22;;;;;;;;;;;;;;;;;;4888572;29;19931;-67
2022/08/18 02:10:49;;;;;;;;;;;;;;;;;;4890690;29;19928;-67
2022/08/18 02:13:17;;;;;;;;;;;;;;;;;;4887592;29;19947;-67
2022/08/18 02:15:44;;;;;;;;;;;;;;;;;;4888478;29;19932;-67
2022/08/18 02:18:11;;;;;;;;;;;;;;;;;;4888103;29;19927;-67
2022/08/18 02:20:39;;;;;;;;;;;;;;;;;;4890014;29;20383;-67
2022/08/18 02:23:06;;;;;;;;;;;;;;;;;;4887638;29;20463;-67
2022/08/18 02:25:34;;;;;;;;;;;;;;;;;;4890408;29;19931;-67
2022/08/18 02:28:01;;;;;;;;;;;;;;;;;;4882926;29;19932;-67
2022/08/18 02:30:28;;;;;;;;;;;;;;;;;;4885951;29;20002;-67
2022/08/18 02:32:55;;;;;;;;;;;;;;;;;;4888775;29;20824;-67
2022/08/18 02:35:22;;;;;;;;;;;;;;;;;;4890377;29;19931;-68
2022/08/18 02:37:51;;;;;;;;;;;;;;;;;;4885627;29;19931;-67
2022/08/18 02:40:18;;;;;;;;;;;;;;;;;;4889154;29;20070;-67
2022/08/18 02:42:45;;;;;;;;;;;;;;;;;;4889733;29;19931;-67
2022/08/18 02:45:13;;;;;;;;;;;;;;;;;;4887517;29;19984;-67
2022/08/18 02:47:40;;;;;;;;;;;;;;;;;;4887444;29;19953;-67
2022/08/18 02:50:07;;;;;;;;;;;;;;;;;;4888012;29;19931;-68
2022/08/18 02:52:34;;;;;;;;;;;;;;;;;;4890041;29;19931;-67
2022/08/18 02:55:02;;;;;;;;;;;;;;;;;;4888747;29;19943;-67
2022/08/18 02:57:29;;;;;;;;;;;;;;;;;;4889683;29;20027;-68
2022/08/18 02:59:56;;;;;;;;;;;;;;;;;;4889207;29;19927;-67
2022/08/18 03:02:24;;;;;;;;;;;;;;;;;;4886433;29;19932;-67
2022/08/18 03:04:51;;;;;;;;;;;;;;;;;;4889936;29;19938;-68
2022/08/18 03:07:18;;;;;;;;;;;;;;;;;;4890218;29;19980;-68
2022/08/18 03:09:46;;;;;;;;;;;;;;;;;;4885422;29;20143;-68
2022/08/18 03:12:13;;;;;;;;;;;;;;;;;;4889846;29;20027;-68
2022/08/18 03:14:40;;;;;;;;;;;;;;;;;;4888486;29;19932;-68
2022/08/18 03:17:07;;;;;;;;;;;;;;;;;;4886048;29;19942;-67
2022/08/18 03:19:35;;;;;;;;;;;;;;;;;;4888201;29;19932;-68
2022/08/18 03:22:03;;;;;;;;;;;;;;;;;;4890158;29;19958;-67
2022/08/18 03:24:30;;;;;;;;;;;;;;;;;;4888129;29;19932;-67
2022/08/18 03:26:57;;;;;;;;;;;;;;;;;;4889690;29;19973;-67
2022/08/18 03:29:25;;;;;;;;;;;;;;;;;;4886916;29;19947;-69
2022/08/18 03:31:57;;;;;;;;;;;;;;;;;;4888436;29;19936;-68
2022/08/18 03:34:25;;;;;;;;;;;;;;;;;;4887779;29;19975;-68
2022/08/18 03:36:52;;;;;;;;;;;;;;;;;;4889671;29;20412;-68
2022/08/18 03:39:22;;;;;;;;;;;;;;;;;;4886175;29;19983;-68
2022/08/18 03:41:49;;;;;;;;;;;;;;;;;;4888335;29;20451;-69
2022/08/18 03:44:26;;;;;;;;;;;;;;;;;;4888345;29;20046;-68
2022/08/18 03:46:54;;;;;;;;;;;;;;;;;;4887831;29;20459;-69
2022/08/18 03:49:21;;;;;;;;;;;;;;;;;;4887757;29;19971;-68
2022/08/18 03:51:50;;;;;;;;;;;;;;;;;;4887707;29;20506;-69
2022/08/18 03:54:17;;;;;;;;;;;;;;;;;;4890819;29;20422;-68
2022/08/18 03:56:45;;;;;;;;;;;;;;;;;;4890150;29;19932;-69
2022/08/18 03:59:12;;;;;;;;;;;;;;;;;;4888797;29;20463;-69
2022/08/18 04:01:39;;;;;;;;;;;;;;;;;;4891213;29;20414;-69
2022/08/18 04:04:07;;;;;;;;;;;;;;;;;;4892448;29;19935;-68
2022/08/18 04:06:34;;;;;;;;;;;;;;;;;;4892546;29;19949;-69
2022/08/18 04:09:01;;;;;;;;;;;;;;;;;;4886787;29;20066;-68
2022/08/18 04:11:29;;;;;;;;;;;;;;;;;;4890037;29;19954;-68
2022/08/18 04:13:59;;;;;;;;;;;;;;;;;;4889963;29;19947;-68
2022/08/18 04:16:26;;;;;;;;;;;;;;;;;;4890447;29;20034;-68
2022/08/18 04:18:56;;;;;;;;;;;;;;;;;;4890605;29;19987;-68
2022/08/18 04:21:23;;;;;;;;;;;;;;;;;;4890941;29;20038;-69
2022/08/18 04:23:50;;;;;;;;;;;;;;;;;;4892545;29;20269;-69
2022/08/18 04:26:18;;;;;;;;;;;;;;;;;;4888785;29;19939;-67
2022/08/18 04:28:46;;;;;;;;;;;;;;;;;;4885568;29;20376;-68
2022/08/18 04:31:13;;;;;;;;;;;;;;;;;;4882933;29;20031;-69
2022/08/18 04:33:40;;;;;;;;;;;;;;;;;;4885673;29;19931;-70
2022/08/18 04:36:08;;;;;;;;;;;;;;;;;;4887656;29;19935;-69
2022/08/18 04:38:36;;;;;;;;;;;;;;;;;;4891420;29;20038;-68
2022/08/18 04:41:03;;;;;;;;;;;;;;;;;;4890080;29;19950;-67
2022/08/18 04:43:30;;;;;;;;;;;;;;;;;;4889526;29;19967;-68
2022/08/18 04:46:00;;;;;;;;;;;;;;;;;;4881171;29;19939;-68
2022/08/18 04:48:27;;;;;;;;;;;;;;;;;;4877269;29;19963;-68
2022/08/18 04:50:55;;;;;;;;;;;;;;;;;;4883670;29;19932;-69
2022/08/18 04:56:08;;;;;;;;;;;;;;;;;;4889899;29;20438;-69
2022/08/18 04:58:36;;;;;;;;;;;;;;;;;;4881367;29;19928;-69
2022/08/18 05:01:04;;;;;;;;;;;;;;;;;;4882832;29;20019;-69
2022/08/18 05:03:31;;;;;;;;;;;;;;;;;;4890166;29;19983;-69
2022/08/18 05:05:59;;;;;;;;;;;;;;;;;;4887332;29;20022;-69
2022/08/18 05:08:26;;;;;;;;;;;;;;;;;;4885044;29;19936;-69
2022/08/18 05:10:53;;;;;;;;;;;;;;;;;;4891281;29;20094;-70
2022/08/18 05:13:20;;;;;;;;;;;;;;;;;;4888386;29;19942;-69
2022/08/18 05:15:48;;;;;;;;;;;;;;;;;;4889572;29;20027;-69
2022/08/18 05:18:39;;;;;;;;;;;;;;;;;;4886532;29;19932;-69
2022/08/18 05:21:13;;;;;;;;;;;;;;;;;;4889482;29;19947;-69
2022/08/18 05:23:41;;;;;;;;;;;;;;;;;;4888417;29;20258;-70
2022/08/18 05:26:08;;;;;;;;;;;;;;;;;;4890536;29;19938;-70
2022/08/18 05:28:36;;;;;;;;;;;;;;;;;;4884508;29;19931;-70
2022/08/18 05:31:03;;;;;;;;;;;;;;;;;;4884225;29;20531;-70
2022/08/18 05:33:32;;;;;;;;;;;;;;;;;;4886677;29;20030;-69
2022/08/18 05:36:02;;;;;;;;;;;;;;;;;;4884322;29;20250;-70
2022/08/18 05:38:29;;;;;;;;;;;;;;;;;;4885662;29;19934;-70
2022/08/18 05:40:57;;;;;;;;;;;;;;;;;;4891267;29;19934;-70
2022/08/18 05:43:24;;;;;;;;;;;;;;;;;;4885181;29;20869;-69
2022/08/18 05:45:53;;;;;;;;;;;;;;;;;;4885153;29;19928;-69
2022/08/18 05:48:20;;;;;;;;;;;;;;;;;;4889490;29;19935;-70
2022/08/18 05:50:47;;;;;;;;;;;;;;;;;;4889693;29;19934;-67
2022/08/18 05:53:15;;;;;;;;;;;;;;;;;;4885892;29;19975;-69
2022/08/18 05:58:30;;;;;;;;;;;;;;;;;;4881245;29;19989;-70
2022/08/18 06:00:59;;;;;;;;;;;;;;;;;;4877010;29;19953;-70
2022/08/18 06:03:26;;;;;;;;;;;;;;;;;;4879566;29;19973;-69
2022/08/18 06:05:56;;;;;;;;;;;;;;;;;;4882039;29;20385;-70
2022/08/18 06:08:23;;;;;;;;;;;;;;;;;;4875716;29;19942;-69
2022/08/18 06:10:50;;;;;;;;;;;;;;;;;;4877044;29;20161;-69
2022/08/18 06:13:18;;;;;;;;;;;;;;;;;;4877784;29;19932;-70
2022/08/18 06:15:46;;;;;;;;;;;;;;;;;;4876787;29;19946;-70
2022/08/18 06:18:14;;;;;;;;;;;;;;;;;;4884570;29;20387;-70
2022/08/18 06:20:41;;;;;;;;;;;;;;;;;;4885690;29;19974;-69
2022/08/18 06:23:08;;;;;;;;;;;;;;;;;;4890015;29;20537;-69
2022/08/18 06:25:36;;;;;;;;;;;;;;;;;;4890006;29;19939;-69
2022/08/18 06:28:03;;;;;;;;;;;;;;;;;;4888692;29;19928;-70
2022/08/18 06:30:31;;;;;;;;;;;;;;;;;;4889090;29;20296;-69
2022/08/18 06:32:59;;;;;;;;;;;;;;;;;;4889324;29;20408;-70
2022/08/18 06:35:26;;;;;;;;;;;;;;;;;;4889282;29;20030;-69
2022/08/18 06:40:40;;;;;;;;;;;;;;;;;;4889625;29;19979;-70
2022/08/18 06:43:08;;;;;;;;;;;;;;;;;;4889488;29;19938;-69
2022/08/18 06:45:35;;;;;;;;;;;;;;;;;;4889957;29;19954;-69
2022/08/18 06:48:05;;;;;;;;;;;;;;;;;;4887294;29;19934;-69
2022/08/18 06:50:33;;;;;;;;;;;;;;;;;;4887959;29;20449;-69
2022/08/18 06:53:00;;;;;;;;;;;;;;;;;;4889001;29;20027;-69
2022/08/18 06:55:29;;;;;;;;;;;;;;;;;;4889225;29;20158;-69
2022/08/18 06:57:59;;;;;;;;;;;;;;;;;;4887167;29;20011;-70
2022/08/18 07:00:26;;;;;;;;;;;;;;;;;;4885109;29;20014;-70
2022/08/18 07:02:53;;;;;;;;;;;;;;;;;;4933944;23;19934;-71
2022/08/18 07:05:21;;;;;;;;;;;;;;;;;;4882966;29;20534;-72
2022/08/18 07:07:48;;;;;;;;;;;;;;;;;;4886092;29;20410;-71
2022/08/18 07:10:15;;;;;;;;;;;;;;;;;;4887710;29;20316;-71
2022/08/18 07:12:43;;;;;;;;;;;;;;;;;;4877152;29;19931;-71
2022/08/18 07:15:10;;;;;;;;;;;;;;;;;;4889206;29;19935;-72
2022/08/18 07:17:38;;;;;;;;;;;;;;;;;;4883339;29;19943;-71
2022/08/18 07:20:09;;;;;;;;;;;;;;;;;;4869040;29;19960;-72
2022/08/18 07:22:37;;;;;;;;;;;;;;;;;;4888007;29;19932;-71
2022/08/18 07:25:05;;;;;;;;;;;;;;;;;;4888554;29;20201;-71
2022/08/18 07:27:32;;;;;;;;;;;;;;;;;;4878074;29;19939;-72
2022/08/18 07:30:00;;;;;;;;;;;;;;;;;;4888670;29;19937;-72
2022/08/18 07:32:27;;;;;;;;;;;;;;;;;;4892971;29;19970;-71
2022/08/18 07:34:57;;;;;;;;;;;;;;;;;;4884888;29;19932;-71
2022/08/18 07:37:26;;;;;;;;;;;;;;;;;;4887973;29;19927;-72
2022/08/18 07:39:55;;;;;;;;;;;;;;;;;;4891800;29;19938;-72
2022/08/18 07:42:23;;;;;;;;;;;;;;;;;;4897460;29;19927;-72
2022/08/18 07:44:59;;;;;;;;;;;;;;;;;;4889171;29;19998;-72
2022/08/18 07:47:27;;;;;;;;;;;;;;;;;;4891132;29;19938;-72
2022/08/18 07:49:57;;;;;;;;;;;;;;;;;;4903770;29;19927;-73
2022/08/18 07:52:44;;;;;;;;;;;;;;;;;;4895461;29;20307;-73
2022/08/18 07:55:13;;;;;;;;;;;;;;;;;;4887960;29;19947;-73
2022/08/18 07:57:40;;;;;;;;;;;;;;;;;;4890769;29;19927;-72
2022/08/18 08:00:18;;;;;;;;;;;;;;;;;;4888538;29;19935;-72
2022/08/18 08:03:01;;;;;;;;;;;;;;;;;;4892019;29;19938;-72
2022/08/18 08:05:28;;;;;;;;;;;;;;;;;;4910860;29;19938;-72
2022/08/18 08:07:55;;;;;;;;;;;;;;;;;;4911490;29;20450;-72
2022/08/18 08:10:23;;;;;;;;;;;;;;;;;;4911148;29;19934;-72
2022/08/18 08:12:50;;;;;;;;;;;;;;;;;;4902879;29;19940;-72
2022/08/18 08:15:17;;;;;;;;;;;;;;;;;;4922084;29;19931;-72
2022/08/18 08:17:45;;;;;;;;;;;;;;;;;;4895033;29;19931;-72
2022/08/18 08:20:12;;;;;;;;;;;;;;;;;;4884410;29;19983;-72
2022/08/18 08:22:39;;;;;;;;;;;;;;;;;;4896397;29;19928;-72
2022/08/18 08:25:07;;;;;;;;;;;;;;;;;;4896132;29;19935;-72
2022/08/18 08:27:48;;;;;;;;;;;;;;;;;;4924361;29;19938;-72
2022/08/18 08:30:16;;;;;;;;;;;;;;;;;;4910721;29;19931;-72
2022/08/18 08:32:43;;;;;;;;;;;;;;;;;;4910958;29;19978;-72
2022/08/18 08:35:10;;;;;;;;;;;;;;;;;;4910647;29;19962;-72
2022/08/18 08:37:42;;;;;;;;;;;;;;;;;;4895420;29;20372;-72
2022/08/18 08:40:09;;;;;;;;;;;;;;;;;;4890702;29;19932;-72
2022/08/18 08:42:37;;;;;;;;;;;;;;;;;;4891507;29;19938;-72
2022/08/18 08:45:06;;;;;;;;;;;;;;;;;;4891361;29;20288;-72
2022/08/18 08:47:34;;;;;;;;;;;;;;;;;;4890701;29;19927;-72
2022/08/18 08:50:02;;;;;;;;;;;;;;;;;;4890953;29;19976;-72
2022/08/18 08:52:29;;;;;;;;;;;;;;;;;;4896224;29;19954;-72
2022/08/18 08:54:57;;;;;;;;;;;;;;;;;;4891682;29;19927;-72
2022/08/18 08:57:24;;;;;;;;;;;;;;;;;;4890726;29;19931;-72
2022/08/18 08:59:51;;;;;;;;;;;;;;;;;;4890875;29;19932;-72
2022/08/18 09:02:18;;;;;;;;;;;;;;;;;;4889491;29;19936;-71
2022/08/18 09:05:06;;;;;;;;;;;;;;;;;;4890652;29;19928;-72
2022/08/18 09:07:35;;;;;;;;;;;;;;;;;;4890780;29;19931;-72
2022/08/18 09:10:04;;;;;;;;;;;;;;;;;;4905430;29;19934;-72
2022/08/18 09:12:31;;;;;;;;;;;;;;;;;;4890582;29;19931;-72
2022/08/18 09:14:59;;;;;;;;;;;;;;;;;;4901635;29;19935;-72
2022/08/18 09:17:26;;;;;;;;;;;;;;;;;;4892596;29;19931;-72
2022/08/18 09:19:57;;;;;;;;;;;;;;;;;;4907651;29;20022;-72
2022/08/18 09:22:24;;;;;;;;;;;;;;;;;;4889301;29;19927;-72
2022/08/18 09:24:52;;;;;;;;;;;;;;;;;;4890070;29;19959;-72
2022/08/18 09:27:19;;;;;;;;;;;;;;;;;;4889873;29;19954;-72
2022/08/18 09:29:46;;;;;;;;;;;;;;;;;;4890437;29;20443;-72
2022/08/18 09:32:14;;;;;;;;;;;;;;;;;;4903950;29;19927;-72
2022/08/18 09:34:41;;;;;;;;;;;;;;;;;;4903470;29;20387;-72
2022/08/18 09:37:29;;;;;;;;;;;;;;;;;;4900580;29;20308;-72
2022/08/18 09:43:19;;;;;;;;;;;;;;;;;;4884258;29;20235;-72
2022/08/18 09:45:48;;;;;;;;;;;;;;;;;;4907367;29;19931;-72
2022/08/18 09:48:15;;;;;;;;;;;;;;;;;;4908156;29;20417;-72
2022/08/18 09:50:46;;;;;;;;;;;;;;;;;;4897171;29;19931;-72
2022/08/18 09:53:14;;;;;;;;;;;;;;;;;;4901815;29;19931;-72
2022/08/18 09:55:41;;;;;;;;;;;;;;;;;;4890104;29;20035;-72
2022/08/18 09:58:29;;;;;;;;;;;;;;;;;;4888606;29;19995;-72
2022/08/18 10:00:56;;;;;;;;;;;;;;;;;;4888581;29;19931;-72
2022/08/18 10:03:24;;;;;;;;;;;;;;;;;;4907308;29;19966;-72
2022/08/18 10:05:57;;;;;;;;;;;;;;;;;;4908298;29;19931;-72
2022/08/18 10:08:25;;;;;;;;;;;;;;;;;;4900223;29;19986;-71
2022/08/18 10:10:53;;;;;;;;;;;;;;;;;;4895415;29;19936;-71
2022/08/18 10:13:31;;;;;;;;;;;;;;;;;;4871706;29;20300;-71
2022/08/18 10:15:58;;;;;;;;;;;;;;;;;;4875644;29;20292;-71
2022/08/18 10:18:36;;;;;;;;;;;;;;;;;;4891108;29;19939;-71
2022/08/18 10:21:04;;;;;;;;;;;;;;;;;;4904149;29;20430;-72
2022/08/18 10:23:31;;;;;;;;;;;;;;;;;;4888430;29;20036;-71
2022/08/18 10:26:04;;;;;;;;;;;;;;;;;;4887851;29;19938;-72
2022/08/18 10:28:35;;;;;;;;;;;;;;;;;;4887757;29;19975;-72
2022/08/18 10:31:02;;;;;;;;;;;;;;;;;;4889405;29;20396;-71
2022/08/18 10:33:32;;;;;;;;;;;;;;;;;;4889526;29;19938;-72
2022/08/18 10:36:00;;;;;;;;;;;;;;;;;;4889992;29;20377;-72
2022/08/18 10:38:28;;;;;;;;;;;;;;;;;;4892804;29;20578;-71
2022/08/18 10:40:57;;;;;;;;;;;;;;;;;;4893356;29;19961;-72
2022/08/18 10:43:24;;;;;;;;;;;;;;;;;;4887744;29;19931;-72
2022/08/18 10:46:11;;;;;;;;;;;;;;;;;;4885012;29;19931;-72
2022/08/18 10:48:58;;;;;;;;;;;;;;;;;;4886118;29;19928;-73
2022/08/18 10:51:26;;;;;;;;;;;;;;;;;;4894230;29;19931;-72
2022/08/18 10:53:53;;;;;;;;;;;;;;;;;;4894159;29;19932;-72
2022/08/18 10:56:20;;;;;;;;;;;;;;;;;;4890064;29;19932;-71
2022/08/18 10:58:52;;;;;;;;;;;;;;;;;;4889552;29;19932;-72
2022/08/18 11:01:19;;;;;;;;;;;;;;;;;;4890060;29;20207;-72
2022/08/18 11:03:47;;;;;;;;;;;;;;;;;;4910335;29;19937;-72
2022/08/18 11:06:18;;;;;;;;;;;;;;;;;;4927494;29;20408;-72
2022/08/18 11:08:47;;;;;;;;;;;;;;;;;;4912985;29;19931;-72
2022/08/18 11:11:15;;;;;;;;;;;;;;;;;;4908278;29;20375;-71
2022/08/18 11:14:02;;;;;;;;;;;;;;;;;;4897222;29;20284;-72
2022/08/18 11:16:29;;;;;;;;;;;;;;;;;;4893701;29;19935;-73
2022/08/18 11:18:57;;;;;;;;;;;;;;;;;;4894569;29;20026;-72
2022/08/18 11:21:24;;;;;;;;;;;;;;;;;;4893623;29;20488;-72
2022/08/18 11:23:51;;;;;;;;;;;;;;;;;;4892808;29;19935;-72
2022/08/18 11:26:18;;;;;;;;;;;;;;;;;;4893671;29;19931;-72
2022/08/18 11:28:46;;;;;;;;;;;;;;;;;;4892018;29;19938;-73
2022/08/18 11:31:13;;;;;;;;;;;;;;;;;;4892834;29;19934;-73
2022/08/18 11:33:41;;;;;;;;;;;;;;;;;;4892190;29;20405;-73
2022/08/18 11:36:08;;;;;;;;;;;;;;;;;;4899029;29;19928;-72
2022/08/18 11:38:35;;;;;;;;;;;;;;;;;;4898596;29;19967;-73
2022/08/18 11:41:02;;;;;;;;;;;;;;;;;;4893561;29;20416;-73
2022/08/18 11:43:38;;;;;;;;;;;;;;;;;;4893704;29;20371;-73
2022/08/18 11:46:08;;;;;;;;;;;;;;;;;;4897653;29;19932;-75
2022/08/18 11:48:36;;;;;;;;;;;;;;;;;;4901895;29;19938;-73
2022/08/18 11:51:17;;;;;;;;;;;;;;;;;;4896555;29;19931;-71
2022/08/18 11:53:50;;;;;;;;;;;;;;;;;;4892636;29;19938;-72
2022/08/18 11:56:24;;;;;;;;;;;;;;;;;;4888936;29;20017;-73
2022/08/18 11:58:57;;;;;;;;;;;;;;;;;;4903992;29;20271;-72
2022/08/18 12:01:24;;;;;;;;;;;;;;;;;;4886873;29;20407;-73
2022/08/18 12:03:51;;;;;;;;;;;;;;;;;;4873041;29;19932;-73
2022/08/18 12:06:19;;;;;;;;;;;;;;;;;;4885949;29;19950;-74
2022/08/18 12:08:46;;;;;;;;;;;;;;;;;;4891771;29;19931;-73
2022/08/18 12:11:29;;;;;;;;;;;;;;;;;;4890552;29;19984;-72
2022/08/18 12:13:56;;;;;;;;;;;;;;;;;;4888781;29;19938;-72
2022/08/18 12:16:23;;;;;;;;;;;;;;;;;;4890045;29;20296;-72
2022/08/18 12:18:50;;;;;;;;;;;;;;;;;;4887994;29;19932;-72
2022/08/18 12:21:18;;;;;;;;;;;;;;;;;;4891246;29;20094;-72
2022/08/18 12:23:45;;;;;;;;;;;;;;;;;;4892366;29;20022;-73
2022/08/18 12:26:19;;;;;;;;;;;;;;;;;;4886763;29;19932;-72
2022/08/18 12:29:04;;;;;;;;;;;;;;;;;;4889360;29;19978;-72
2022/08/18 12:31:35;;;;;;;;;;;;;;;;;;4891034;29;20352;-73
2022/08/18 12:34:09;;;;;;;;;;;;;;;;;;4885616;29;19935;-73
2022/08/18 12:36:39;;;;;;;;;;;;;;;;;;4889254;29;19938;-73
2022/08/18 12:39:06;;;;;;;;;;;;;;;;;;4889019;29;19938;-73
2022/08/18 12:41:34;;;;;;;;;;;;;;;;;;4889675;29;19931;-73
2022/08/18 12:44:01;;;;;;;;;;;;;;;;;;4883589;29;20316;-72
2022/08/18 12:46:28;;;;;;;;;;;;;;;;;;4879995;29;19931;-73
2022/08/18 12:48:55;;;;;;;;;;;;;;;;;;4890620;29;19931;-72
2022/08/18 12:51:23;;;;;;;;;;;;;;;;;;4888273;29;20368;-73
2022/08/18 12:53:51;;;;;;;;;;;;;;;;;;4888094;29;20311;-73
2022/08/18 12:56:39;;;;;;;;;;;;;;;;;;4890229;29;20034;-72
2022/08/18 12:59:06;;;;;;;;;;;;;;;;;;4888977;29;19936;-72
2022/08/18 13:01:33;;;;;;;;;;;;;;;;;;4885779;29;20026;-74
2022/08/18 13:04:03;;;;;;;;;;;;;;;;;;4892815;23;20297;-91
2022/08/18 13:06:52;;;;;;;;;;;;;;;;;;4866784;29;19935;-90
2022/08/18 13:09:40;;;;;;;;;;;;;;;;;;;;;
2022/08/18 13:12:33;;;;;;;;;;;;;;;;;;4872772;29;20009;-89
2022/08/18 13:15:20;;;;;;;;;;;;;;;;;;4863099;29;20042;-89
2022/08/18 13:18:18;;;;;;;;;;;;;;;;;;4871853;29;19939;-91
2022/08/18 13:21:51;;;;;;;;;;;;;;;;;;4842817;29;20600;-90
2022/08/18 13:24:53;;;;;;;;;;;;;;;;;;4851700;29;19931;-90
2022/08/18 13:27:31;;;;;;;;;;;;;;;;;;4886511;29;19932;-90
2022/08/18 13:30:29;;;;;;;;;;;;;;;;;;4872032;29;19932;-89
2022/08/18 13:33:15;;;;;;;;;;;;;;;;;;4887081;29;19928;-89
2022/08/18 13:36:43;;;;;;;;;;;;;;;;;;4889508;29;19931;-90
2022/08/18 13:39:23;;;;;;;;;;;;;;;;;;4885694;29;19927;-88
2022/08/18 13:42:21;;;;;;;;;;;;;;;;;;4877748;29;19932;-91
2022/08/18 13:45:42;;;;;;;;;;;;;;;;;;4856594;29;20300;-89
2022/08/18 13:48:10;;;;;;;;;;;;;;;;;;4890807;29;19940;-90
2022/08/18 13:50:46;;;;;;;;;;;;;;;;;;4888232;29;19936;-90
2022/08/18 13:53:45;;;;;;;;;;;;;;;;;;4870804;29;19970;-89
2022/08/18 13:56:25;;;;;;;;;;;;;;;;;;4868547;29;20014;-90
2022/08/18 13:58:58;;;;;;;;;;;;;;;;;;4888533;29;19988;-89
2022/08/18 14:01:25;;;;;;;;;;;;;;;;;;4867921;29;19928;-89
2022/08/18 14:04:18;;;;;;;;;;;;;;;;;;4876618;29;21036;-89
2022/08/18 14:10:25;;;;;;;;;;;;;;;;;;4868839;29;19924;-89
2022/08/18 14:13:06;;;;;;;;;;;;;;;;;;4871924;29;19931;-88
2022/08/18 14:15:57;;;;;;;;;;;;;;;;;;4850448;29;19931;-89
2022/08/18 14:27:18;;;;;;;;;;;;;;;;;;4898743;29;19987;-76
2022/08/18 14:29:47;;;;;;;;;;;;;;;;;;4897145;29;19999;-76
2022/08/18 14:32:14;;;;;;;;;;;;;;;;;;4906515;29;19931;-75
2022/08/18 14:34:44;;;;;;;;;;;;;;;;;;4896906;29;19935;-76
2022/08/18 14:37:17;;;;;;;;;;;;;;;;;;4891806;29;20282;-75
2022/08/18 14:39:44;;;;;;;;;;;;;;;;;;4885740;29;19932;-76
2022/08/18 14:42:14;;;;;;;;;;;;;;;;;;4881890;29;20678;-74
2022/08/18 14:44:41;;;;;;;;;;;;;;;;;;4883956;29;19939;-76
2022/08/18 14:47:08;;;;;;;;;;;;;;;;;;4883314;29;19931;-77
2022/08/18 14:49:36;;;;;;;;;;;;;;;;;;4886497;29;21033;-75
2022/08/18 14:52:11;;;;;;;;;;;;;;;;;;4884666;29;19931;-75
2022/08/18 14:54:40;;;;;;;;;;;;;;;;;;4872151;29;19935;-75
2022/08/18 14:57:10;;;;;;;;;;;;;;;;;;4869411;29;19931;-76
2022/08/18 14:59:37;;;;;;;;;;;;;;;;;;4886251;29;20018;-76
2022/08/18 15:02:04;;;;;;;;;;;;;;;;;;4884970;29;19970;-75
2022/08/18 15:04:32;;;;;;;;;;;;;;;;;;4884989;29;19975;-76
2022/08/18 15:06:59;;;;;;;;;;;;;;;;;;4881182;29;19932;-75
2022/08/18 15:09:28;;;;;;;;;;;;;;;;;;4884603;29;19932;-76
2022/08/18 15:11:57;;;;;;;;;;;;;;;;;;4881638;29;20019;-76
2022/08/18 15:14:25;;;;;;;;;;;;;;;;;;4878834;29;19936;-76
2022/08/18 15:16:59;;;;;;;;;;;;;;;;;;4876298;29;19932;-76
2022/08/18 15:19:26;;;;;;;;;;;;;;;;;;4877981;29;19954;-75
2022/08/18 15:27:47;;;;;;;;;;;;;;;;;;4879552;29;20042;-75
2022/08/18 15:30:18;;;;;;;;;;;;;;;;;;4881811;29;19936;-75
2022/08/18 15:32:46;;;;;;;;;;;;;;;;;;4883390;29;20348;-76
2022/08/18 15:35:15;;;;;;;;;;;;;;;;;;4884341;29;19935;-76
2022/08/18 15:37:42;;;;;;;;;;;;;;;;;;4888344;29;19938;-76
2022/08/18 15:40:12;;;;;;;;;;;;;;;;;;4886665;29;19972;-76
2022/08/18 15:42:56;;;;;;;;;;;;;;;;;;4883353;29;19931;-76
2022/08/18 15:45:26;;;;;;;;;;;;;;;;;;4889858;29;20373;-77
2022/08/18 15:47:54;;;;;;;;;;;;;;;;;;4888650;29;20059;-76
2022/08/18 15:50:22;;;;;;;;;;;;;;;;;;4890103;29;19942;-76
2022/08/18 15:52:52;;;;;;;;;;;;;;;;;;4887915;29;20039;-76
2022/08/18 15:55:19;;;;;;;;;;;;;;;;;;4875430;29;20566;-76
2022/08/18 15:57:47;;;;;;;;;;;;;;;;;;4875495;29;20050;-76
2022/08/18 16:00:16;;;;;;;;;;;;;;;;;;4874962;29;20498;-77
2022/08/18 16:02:43;;;;;;;;;;;;;;;;;;4881185;29;19936;-76
2022/08/18 16:05:14;;;;;;;;;;;;;;;;;;4888443;29;19935;-75
2022/08/18 16:07:44;;;;;;;;;;;;;;;;;;4886024;29;20376;-75
2022/08/18 16:10:12;;;;;;;;;;;;;;;;;;4893568;29;20322;-75
2022/08/18 16:12:39;;;;;;;;;;;;;;;;;;4892506;29;19928;-76
2022/08/18 16:15:12;;;;;;;;;;;;;;;;;;4887079;29;19932;-76
2022/08/18 16:17:44;;;;;;;;;;;;;;;;;;4880354;29;19931;-75
2022/08/18 16:20:13;;;;;;;;;;;;;;;;;;4902345;29;19931;-76
2022/08/18 16:22:40;;;;;;;;;;;;;;;;;;4885011;29;19960;-76
2022/08/18 16:25:07;;;;;;;;;;;;;;;;;;4891885;29;20090;-77
2022/08/18 16:27:35;;;;;;;;;;;;;;;;;;4881287;29;19935;-76
2022/08/18 16:30:05;;;;;;;;;;;;;;;;;;4887608;29;20001;-77
2022/08/18 16:32:32;;;;;;;;;;;;;;;;;;4885063;29;20307;-76
2022/08/18 16:34:59;;;;;;;;;;;;;;;;;;4875889;29;19934;-76
2022/08/18 16:37:27;;;;;;;;;;;;;;;;;;4890464;29;19931;-76
2022/08/18 16:39:54;;;;;;;;;;;;;;;;;;4891177;29;20056;-76
2022/08/18 16:42:21;;;;;;;;;;;;;;;;;;4885643;29;19932;-77
2022/08/18 16:44:49;;;;;;;;;;;;;;;;;;4892422;29;20434;-76
2022/08/18 16:47:17;;;;;;;;;;;;;;;;;;4895233;29;19938;-75
2022/08/18 16:49:47;;;;;;;;;;;;;;;;;;4891843;29;20463;-76
2022/08/18 16:52:14;;;;;;;;;;;;;;;;;;4888121;29;20038;-76
2022/08/18 16:54:42;;;;;;;;;;;;;;;;;;4893049;29;19942;-76
2022/08/18 16:57:09;;;;;;;;;;;;;;;;;;4888911;29;20429;-76
2022/08/18 17:05:10;;;;;;;;;;;;;;;;;;4890749;29;20025;-76
2022/08/18 17:07:38;;;;;;;;;;;;;;;;;;4890838;29;20019;-76
2022/08/18 17:10:05;;;;;;;;;;;;;;;;;;4891340;29;19931;-77
2022/08/18 17:12:32;;;;;;;;;;;;;;;;;;4891606;29;20018;-77
2022/08/18 17:15:01;;;;;;;;;;;;;;;;;;4888724;29;19939;-76
2022/08/18 17:17:28;;;;;;;;;;;;;;;;;;4888602;29;20014;-77
2022/08/18 17:19:56;;;;;;;;;;;;;;;;;;4897641;29;19931;-77
2022/08/18 17:22:23;;;;;;;;;;;;;;;;;;4883169;29;19990;-78
2022/08/18 17:24:50;;;;;;;;;;;;;;;;;;4886316;29;19935;-76
2022/08/18 17:27:17;;;;;;;;;;;;;;;;;;4889547;29;20023;-77
2022/08/18 17:29:52;;;;;;;;;;;;;;;;;;4884743;29;19931;-77
2022/08/18 17:32:20;;;;;;;;;;;;;;;;;;4889642;29;20311;-76
2022/08/18 17:34:50;;;;;;;;;;;;;;;;;;4888906;29;19987;-75
2022/08/18 17:37:17;;;;;;;;;;;;;;;;;;4891695;29;20121;-76
2022/08/18 17:39:44;;;;;;;;;;;;;;;;;;4890133;29;20401;-76
2022/08/18 17:42:24;;;;;;;;;;;;;;;;;;4892608;29;19939;-77
2022/08/18 17:44:51;;;;;;;;;;;;;;;;;;4892179;29;19936;-77
2022/08/18 17:47:20;;;;;;;;;;;;;;;;;;4893853;29;20611;-78